Time;durP1;ratioP1;P1;durP2;ratioP2;P2;SDS_P1;SDS_P2;PMS_P1;PMS_P2;Temp;Humidity;BMP_temperature;BMP_pressure;BME280_temperature;BME280_humidity;BME280_pressure;Samples;Min_cycle;Max_cycle;Signal;HPM_P1;HPM_P2
2023/03/27 00:00:45;;;;;;;;;;;10.10;99.90;;;;;;5143124;28;19918;-70
2023/03/27 00:03:19;;;;;;;;;;;10.10;99.90;;;;;;5146228;28;19921;-62
2023/03/27 00:05:59;;;;;;;;;;;10.00;99.90;;;;;;5136020;28;20226;-71
2023/03/27 00:08:32;;;;;;;;;;;10.00;99.90;;;;;;5175439;28;20256;-66
2023/03/27 00:11:07;;;;;;;;;;;10.00;99.90;;;;;;5140426;28;19918;-70
2023/03/27 00:13:39;;;;;;;;;;;9.90;99.90;;;;;;5157231;28;19909;-69
2023/03/27 00:16:13;;;;;;;;;;;9.90;99.90;;;;;;5147841;28;19929;-70
2023/03/27 00:18:47;;;;;;;;;;;9.90;99.90;;;;;;5155454;28;19928;-68
2023/03/27 00:21:21;;;;;;;;;;;9.90;99.90;;;;;;5175421;28;20110;-71
2023/03/27 00:23:59;;;;;;;;;;;9.90;99.90;;;;;;5174591;28;19909;-71
2023/03/27 00:26:32;;;;;;;;;;;9.80;99.90;;;;;;5126527;28;19917;-68
2023/03/27 00:29:04;;;;;;;;;;;9.80;99.90;;;;;;5150397;28;20252;-70
2023/03/27 00:31:38;;;;;;;;;;;9.80;99.90;;;;;;5152663;28;19925;-69
2023/03/27 00:34:09;;;;;;;;;;;9.90;73.50;;;;;;5173728;28;19951;-71
2023/03/27 00:36:42;;;;;;;;;;;9.90;34.70;;;;;;5174994;28;20233;-71
2023/03/27 00:39:17;;;;;;;;;;;9.80;43.60;;;;;;5158227;28;19913;-65
2023/03/27 00:41:54;;;;;;;;;;;9.80;60.10;;;;;;5140687;28;19917;-70
2023/03/27 00:44:33;;;;;;;;;;;9.80;98.80;;;;;;5167718;28;19910;-71
2023/03/27 00:47:13;;;;;;;;;;;9.80;99.90;;;;;;5169808;28;19924;-70
2023/03/27 00:49:48;;;;;;;;;;;9.80;99.90;;;;;;5141780;28;19913;-67
2023/03/27 00:52:20;;;;;;;;;;;9.70;99.90;;;;;;5145743;28;20218;-66
2023/03/27 00:54:51;;;;;;;;;;;9.70;99.90;;;;;;5130751;28;20370;-68
2023/03/27 00:57:24;;;;;;;;;;;9.70;99.90;;;;;;5150576;28;19923;-66
2023/03/27 00:59:57;;;;;;;;;;;9.60;99.90;;;;;;5168451;28;20483;-67
2023/03/27 01:02:30;;;;;;;;;;;9.60;99.90;;;;;;5264450;23;19926;-69
2023/03/27 01:05:05;;;;;;;;;;;9.50;99.90;;;;;;5137045;28;19931;-69
2023/03/27 01:07:38;;;;;;;;;;;9.50;99.90;;;;;;5119009;28;19917;-66
2023/03/27 01:10:13;;;;;;;;;;;9.50;99.90;;;;;;5160598;28;19921;-69
2023/03/27 01:13:13;;;;;;;;;;;9.50;99.90;;;;;;5115822;28;20157;-68
2023/03/27 01:16:01;;;;;;;;;;;9.40;99.90;;;;;;5134483;28;19921;-70
2023/03/27 01:18:39;;;;;;;;;;;9.40;99.90;;;;;;5120647;28;20090;-69
2023/03/27 01:21:29;;;;;;;;;;;9.30;1.00;;;;;;5136354;28;19918;-68
2023/03/27 01:24:18;;;;;;;;;;;9.10;1.00;;;;;;5143433;28;19978;-71
2023/03/27 01:27:01;;;;;;;;;;;9.10;1.00;;;;;;5147170;28;20504;-70
2023/03/27 01:29:38;;;;;;;;;;;9.00;1.00;;;;;;5132445;28;19914;-68
2023/03/27 01:32:50;;;;;;;;;;;8.90;1.00;;;;;;5146584;28;19937;-67
2023/03/27 01:35:36;;;;;;;;;;;8.90;1.00;;;;;;5102773;29;19939;-71
2023/03/27 01:38:36;;;;;;;;;;;8.80;1.00;;;;;;5089735;29;19919;-69
2023/03/27 01:41:25;;;;;;;;;;;8.80;1.00;;;;;;5074860;29;19918;-69
2023/03/27 01:44:16;;;;;;;;;;;8.80;1.00;;;;;;5102745;28;19910;-68
2023/03/27 01:47:03;;;;;;;;;;;8.70;1.00;;;;;;5117761;28;19917;-67
2023/03/27 01:49:40;;;;;;;;;;;8.70;1.00;;;;;;5166664;28;19918;-70
2023/03/27 01:52:25;;;;;;;;;;;8.70;1.00;;;;;;5119224;28;19928;-70
2023/03/27 01:55:04;;;;;;;;;;;8.60;1.00;;;;;;5137401;28;19944;-70
2023/03/27 01:57:51;;;;;;;;;;;8.60;1.00;;;;;;5118900;28;20327;-69
2023/03/27 02:00:28;;;;;;;;;;;8.60;1.00;;;;;;5148547;28;20438;-69
2023/03/27 02:03:12;;;;;;;;;;;8.50;1.00;;;;;;5122618;28;19930;-70
2023/03/27 02:05:55;;;;;;;;;;;8.50;1.00;;;;;;5122948;28;19929;-67
2023/03/27 02:08:38;;;;;;;;;;;8.50;1.00;;;;;;5131951;28;20327;-68
2023/03/27 02:11:09;;;;;;;;;;;8.40;1.00;;;;;;5106533;28;19910;-70
2023/03/27 02:13:52;;;;;;;;;;;8.40;1.00;;;;;;5141782;28;20465;-68
2023/03/27 02:16:35;;;;;;;;;;;8.30;1.00;;;;;;5144376;28;19922;-66
2023/03/27 02:19:18;;;;;;;;;;;8.30;1.00;;;;;;5150639;28;20052;-69
2023/03/27 02:21:49;;;;;;;;;;;8.30;1.00;;;;;;5151029;28;19910;-68
2023/03/27 02:24:24;;;;;;;;;;;8.20;1.00;;;;;;5150191;28;19916;-67
2023/03/27 02:27:23;;;;;;;;;;;8.20;1.00;;;;;;5117211;28;19918;-67
2023/03/27 02:30:18;;;;;;;;;;;8.10;1.00;;;;;;5167073;28;20229;-68
2023/03/27 02:33:14;;;;;;;;;;;8.10;1.00;;;;;;5149220;28;19927;-69
2023/03/27 02:36:11;;;;;;;;;;;8.10;1.00;;;;;;5117806;28;19918;-69
2023/03/27 02:38:51;;;;;;;;;;;8.10;1.00;;;;;;5132746;28;20347;-70
2023/03/27 02:41:37;;;;;;;;;;;8.10;1.00;;;;;;5134131;28;19918;-69
2023/03/27 02:44:30;;;;;;;;;;;8.10;1.00;;;;;;5151542;28;19917;-71
2023/03/27 02:47:09;;;;;;;;;;;8.00;1.00;;;;;;5116083;28;19917;-70
2023/03/27 02:49:58;;;;;;;;;;;8.10;1.00;;;;;;5151558;28;19924;-68
2023/03/27 02:52:38;;;;;;;;;;;8.00;1.00;;;;;;5135180;28;19918;-67
2023/03/27 02:55:16;;;;;;;;;;;8.00;1.00;;;;;;5143786;28;19917;-68
2023/03/27 02:57:52;;;;;;;;;;;7.90;1.00;;;;;;5135642;28;19925;-68
2023/03/27 03:00:29;;;;;;;;;;;7.90;1.00;;;;;;5134354;28;19917;-70
2023/03/27 03:03:12;;;;;;;;;;;7.90;1.00;;;;;;5155059;28;19913;-67
2023/03/27 03:05:45;;;;;;;;;;;7.90;1.00;;;;;;5159673;28;19922;-69
2023/03/27 03:08:21;;;;;;;;;;;7.80;1.00;;;;;;5150416;28;20125;-69
2023/03/27 03:11:01;;;;;;;;;;;7.80;1.00;;;;;;5167403;28;19909;-68
2023/03/27 03:13:33;;;;;;;;;;;7.80;1.00;;;;;;5156976;28;20509;-65
2023/03/27 03:16:06;;;;;;;;;;;7.70;1.00;;;;;;5149942;28;20233;-69
2023/03/27 03:18:38;;;;;;;;;;;7.70;1.00;;;;;;5133980;28;20419;-67
2023/03/27 03:21:09;;;;;;;;;;;7.70;1.00;;;;;;5151230;28;19917;-68
2023/03/27 03:23:44;;;;;;;;;;;7.70;1.00;;;;;;5126514;28;19914;-69
2023/03/27 03:26:15;;;;;;;;;;;7.60;1.00;;;;;;5134551;28;19977;-67
2023/03/27 03:28:49;;;;;;;;;;;7.60;1.00;;;;;;5122026;28;20350;-68
2023/03/27 03:31:23;;;;;;;;;;;7.60;1.00;;;;;;5130892;28;19924;-68
2023/03/27 03:33:55;;;;;;;;;;;7.60;1.00;;;;;;5167462;28;20206;-66
2023/03/27 03:36:29;;;;;;;;;;;7.60;1.00;;;;;;5153021;28;19922;-69
2023/03/27 03:39:04;;;;;;;;;;;7.60;1.00;;;;;;5122934;28;20417;-68
2023/03/27 03:41:35;;;;;;;;;;;7.60;1.00;;;;;;5132185;28;19918;-68
2023/03/27 03:44:08;;;;;;;;;;;7.60;1.00;;;;;;5137811;28;20214;-68
2023/03/27 03:46:41;;;;;;;;;;;7.60;1.00;;;;;;5154399;28;19932;-66
2023/03/27 03:49:16;;;;;;;;;;;7.50;1.00;;;;;;5122162;28;20122;-70
2023/03/27 03:51:49;;;;;;;;;;;7.60;1.00;;;;;;5106956;28;19928;-69
2023/03/27 03:54:23;;;;;;;;;;;7.50;1.00;;;;;;5090221;28;19922;-69
2023/03/27 03:56:55;;;;;;;;;;;7.50;1.00;;;;;;5154555;28;19924;-67
2023/03/27 03:59:26;;;;;;;;;;;7.50;1.00;;;;;;5152755;28;19910;-67
2023/03/27 04:01:57;;;;;;;;;;;7.50;1.00;;;;;;5113827;28;19932;-70
2023/03/27 04:04:32;;;;;;;;;;;7.50;1.00;;;;;;5143028;28;19991;-68
2023/03/27 04:07:04;;;;;;;;;;;7.40;1.00;;;;;;5106203;28;20230;-68
2023/03/27 04:09:37;;;;;;;;;;;7.40;1.00;;;;;;5120877;28;19917;-69
2023/03/27 04:12:12;;;;;;;;;;;7.40;1.00;;;;;;5143189;28;20203;-68
2023/03/27 04:14:51;;;;;;;;;;;7.40;1.00;;;;;;5162070;28;19924;-66
2023/03/27 04:17:25;;;;;;;;;;;7.40;1.00;;;;;;5119840;28;20155;-66
2023/03/27 04:19:59;;;;;;;;;;;7.40;1.00;;;;;;5150728;28;20303;-68
2023/03/27 04:22:36;;;;;;;;;;;7.40;1.00;;;;;;5152247;28;19914;-70
2023/03/27 04:25:14;;;;;;;;;;;7.40;1.00;;;;;;5149187;28;19917;-63
2023/03/27 04:27:50;;;;;;;;;;;7.40;1.00;;;;;;5135801;28;19921;-67
2023/03/27 04:30:26;;;;;;;;;;;7.40;1.00;;;;;;5166647;28;19917;-69
2023/03/27 04:33:00;;;;;;;;;;;7.40;1.00;;;;;;5152907;28;19921;-70
2023/03/27 04:35:39;;;;;;;;;;;7.40;1.00;;;;;;5136512;28;20527;-69
2023/03/27 04:38:18;;;;;;;;;;;7.30;1.00;;;;;;5122004;28;20224;-68
2023/03/27 04:41:00;;;;;;;;;;;7.30;1.00;;;;;;5135410;28;19948;-68
2023/03/27 04:43:40;;;;;;;;;;;7.30;1.00;;;;;;5145754;28;19910;-68
2023/03/27 04:46:17;;;;;;;;;;;7.30;1.00;;;;;;5134463;28;19928;-66
2023/03/27 04:48:50;;;;;;;;;;;7.30;1.00;;;;;;5080194;28;20345;-69
2023/03/27 04:51:31;;;;;;;;;;;7.30;1.00;;;;;;5121290;28;20378;-68
2023/03/27 04:54:06;;;;;;;;;;;7.20;1.00;;;;;;5108776;28;19953;-67
2023/03/27 04:56:40;;;;;;;;;;;7.30;1.00;;;;;;5160559;28;19918;-66
2023/03/27 04:59:17;;;;;;;;;;;7.20;1.00;;;;;;5137215;28;19927;-70
2023/03/27 05:01:51;;;;;;;;;;;7.30;1.00;;;;;;5134911;28;19928;-70
2023/03/27 05:04:25;;;;;;;;;;;7.20;1.00;;;;;;5098059;28;19920;-68
2023/03/27 05:06:58;;;;;;;;;;;7.20;1.00;;;;;;5114959;28;19922;-67
2023/03/27 05:09:32;;;;;;;;;;;7.20;1.00;;;;;;5168408;28;20112;-69
2023/03/27 05:12:03;;;;;;;;;;;7.20;1.00;;;;;;5154412;28;19917;-68
2023/03/27 05:14:37;;;;;;;;;;;7.20;1.00;;;;;;5143530;28;20334;-67
2023/03/27 05:17:16;;;;;;;;;;;7.20;1.00;;;;;;5151925;28;19910;-69
2023/03/27 05:19:48;;;;;;;;;;;7.20;1.00;;;;;;5136447;28;19922;-69
2023/03/27 05:22:25;;;;;;;;;;;7.20;1.00;;;;;;5151819;28;19913;-69
2023/03/27 05:24:57;;;;;;;;;;;7.20;1.00;;;;;;5120386;28;19921;-67
2023/03/27 05:27:33;;;;;;;;;;;7.20;1.00;;;;;;5136537;28;19918;-68
2023/03/27 05:30:10;;;;;;;;;;;7.20;1.00;;;;;;5103555;28;19916;-70
2023/03/27 05:32:50;;;;;;;;;;;7.20;1.00;;;;;;5120550;28;19929;-68
2023/03/27 05:35:28;;;;;;;;;;;7.20;1.00;;;;;;5152059;28;19921;-68
2023/03/27 05:38:03;;;;;;;;;;;7.20;1.00;;;;;;5152462;28;19918;-68
2023/03/27 05:40:36;;;;;;;;;;;7.20;1.00;;;;;;5120451;28;19916;-67
2023/03/27 05:43:10;;;;;;;;;;;7.20;1.00;;;;;;5136721;28;19909;-67
2023/03/27 05:45:44;;;;;;;;;;;7.20;1.00;;;;;;5151138;28;19917;-69
2023/03/27 05:48:21;;;;;;;;;;;7.10;1.00;;;;;;5167407;28;19918;-71
2023/03/27 05:50:55;;;;;;;;;;;7.10;1.00;;;;;;5120265;28;20443;-65
2023/03/27 05:53:38;;;;;;;;;;;7.10;1.00;;;;;;5119357;28;20230;-69
2023/03/27 05:56:13;;;;;;;;;;;7.10;1.00;;;;;;5134442;28;19910;-67
2023/03/27 05:58:47;;;;;;;;;;;7.10;1.00;;;;;;5104073;28;19930;-68
2023/03/27 06:01:19;;;;;;;;;;;7.10;1.00;;;;;;5133890;28;19916;-70
2023/03/27 06:03:54;;;;;;;;;;;7.10;1.00;;;;;;5151620;28;19918;-69
2023/03/27 06:06:26;;;;;;;;;;;7.10;1.00;;;;;;5122081;28;19913;-69
2023/03/27 06:08:58;;;;;;;;;;;7.10;1.00;;;;;;5112629;28;19918;-68
2023/03/27 06:11:34;;;;;;;;;;;7.10;1.00;;;;;;5138879;28;19928;-69
2023/03/27 06:14:13;;;;;;;;;;;7.10;1.00;;;;;;5134542;28;19917;-68
2023/03/27 06:16:47;;;;;;;;;;;7.10;1.00;;;;;;5132605;28;19910;-69
2023/03/27 06:19:23;;;;;;;;;;;7.10;1.00;;;;;;5150887;28;19918;-70
2023/03/27 06:22:02;;;;;;;;;;;7.10;18.90;;;;;;5150849;28;19924;-70
2023/03/27 06:24:35;;;;;;;;;;;7.00;8.50;;;;;;5166813;28;20052;-69
2023/03/27 06:27:09;;;;;;;;;;;7.00;5.50;;;;;;5135137;28;20244;-70
2023/03/27 06:29:48;;;;;;;;;;;7.10;18.30;;;;;;5150905;28;19914;-69
2023/03/27 06:32:19;;;;;;;;;;;7.00;42.80;;;;;;5149583;28;20317;-67
2023/03/27 06:34:55;;;;;;;;;;;7.00;67.30;;;;;;5150299;28;19917;-69
2023/03/27 06:37:27;;;;;;;;;;;7.00;75.40;;;;;;5151320;28;19918;-69
2023/03/27 06:40:08;;;;;;;;;;;6.90;99.90;;;;;;5087714;28;19918;-68
2023/03/27 06:42:47;;;;;;;;;;;6.90;99.90;;;;;;5118927;28;19917;-68
2023/03/27 06:45:23;;;;;;;;;;;6.80;99.90;;;;;;5133822;28;19923;-69
2023/03/27 06:47:57;;;;;;;;;;;6.80;99.90;;;;;;5120272;28;19913;-69
2023/03/27 06:50:32;;;;;;;;;;;6.80;99.90;;;;;;5118546;28;19917;-68
2023/03/27 06:53:15;;;;;;;;;;;6.80;99.90;;;;;;5115641;28;20013;-67
2023/03/27 06:55:53;;;;;;;;;;;6.70;99.90;;;;;;5150812;28;19917;-67
2023/03/27 06:58:26;;;;;;;;;;;6.70;99.90;;;;;;5139194;28;19921;-69
2023/03/27 07:01:00;;;;;;;;;;;6.70;99.90;;;;;;5120180;28;19924;-66
2023/03/27 07:03:33;;;;;;;;;;;6.60;99.90;;;;;;5131089;28;19932;-67
2023/03/27 07:06:06;;;;;;;;;;;6.60;99.90;;;;;;5134008;28;19921;-67
2023/03/27 07:08:37;;;;;;;;;;;6.70;99.90;;;;;;5122153;28;19944;-65
2023/03/27 07:11:11;;;;;;;;;;;6.70;99.90;;;;;;5138125;28;19918;-68
2023/03/27 07:13:42;;;;;;;;;;;6.70;99.90;;;;;;5151198;28;19913;-67
2023/03/27 07:16:14;;;;;;;;;;;6.80;99.90;;;;;;5149863;28;19910;-70
2023/03/27 07:18:48;;;;;;;;;;;6.80;99.90;;;;;;5138015;28;19926;-68
2023/03/27 07:21:22;;;;;;;;;;;6.80;99.90;;;;;;5168586;28;19918;-70
2023/03/27 07:23:54;;;;;;;;;;;6.80;99.90;;;;;;5134314;28;20154;-70
2023/03/27 07:26:25;;;;;;;;;;;6.80;99.90;;;;;;5163797;28;19926;-69
2023/03/27 07:28:59;;;;;;;;;;;6.80;99.90;;;;;;5122808;28;19940;-68
2023/03/27 07:31:30;;;;;;;;;;;6.80;99.90;;;;;;5129982;28;19918;-70
2023/03/27 07:34:03;;;;;;;;;;;6.80;99.90;;;;;;5142295;28;19909;-70
2023/03/27 07:36:37;;;;;;;;;;;6.90;99.90;;;;;;5151491;28;19918;-70
2023/03/27 07:39:08;;;;;;;;;;;6.90;99.90;;;;;;5152521;28;20091;-69
2023/03/27 07:41:45;;;;;;;;;;;7.00;99.90;;;;;;5137968;28;20447;-68
2023/03/27 07:44:22;;;;;;;;;;;7.00;99.90;;;;;;5137980;28;19916;-69
2023/03/27 07:46:59;;;;;;;;;;;7.10;99.90;;;;;;5119494;28;19918;-70
2023/03/27 07:49:33;;;;;;;;;;;7.10;99.90;;;;;;5149436;28;19925;-71
2023/03/27 07:52:08;;;;;;;;;;;7.00;99.90;;;;;;5150634;28;20495;-69
2023/03/27 07:54:43;;;;;;;;;;;7.10;99.90;;;;;;5155021;28;19925;-68
2023/03/27 07:57:20;;;;;;;;;;;7.10;99.90;;;;;;5132694;28;20452;-70
2023/03/27 07:59:56;;;;;;;;;;;7.20;99.90;;;;;;5117296;28;19918;-67
2023/03/27 08:02:31;;;;;;;;;;;7.20;99.90;;;;;;5148147;28;19917;-67
2023/03/27 08:05:09;;;;;;;;;;;7.20;99.90;;;;;;5121868;28;20195;-69
2023/03/27 08:07:44;;;;;;;;;;;7.30;99.90;;;;;;5148804;28;19914;-69
2023/03/27 08:10:18;;;;;;;;;;;7.30;99.90;;;;;;5102823;28;19918;-67
2023/03/27 08:12:49;;;;;;;;;;;7.40;99.90;;;;;;5133921;28;19990;-69
2023/03/27 08:15:23;;;;;;;;;;;7.50;99.90;;;;;;5127444;28;20001;-70
2023/03/27 08:17:59;;;;;;;;;;;7.50;99.90;;;;;;5150578;28;19924;-68
2023/03/27 08:20:30;;;;;;;;;;;7.40;99.90;;;;;;5168766;28;19917;-70
2023/03/27 08:23:06;;;;;;;;;;;7.60;99.90;;;;;;5153872;28;20118;-69
2023/03/27 08:25:38;;;;;;;;;;;7.60;99.90;;;;;;5137705;28;19913;-68
2023/03/27 08:28:12;;;;;;;;;;;7.70;99.90;;;;;;5154502;28;19917;-68
2023/03/27 08:30:45;;;;;;;;;;;7.70;99.90;;;;;;5167193;28;19918;-69
2023/03/27 08:33:18;;;;;;;;;;;7.70;99.90;;;;;;5135956;28;19917;-71
2023/03/27 08:35:52;;;;;;;;;;;7.60;99.90;;;;;;5148656;28;20222;-70
2023/03/27 08:38:23;;;;;;;;;;;7.50;99.90;;;;;;5132419;28;20458;-69
2023/03/27 08:40:57;;;;;;;;;;;7.60;99.90;;;;;;5159613;28;19925;-71
2023/03/27 08:43:41;;;;;;;;;;;7.60;99.90;;;;;;5133340;28;19914;-72
2023/03/27 08:46:29;;;;;;;;;;;7.60;99.90;;;;;;5148635;28;19918;-72
2023/03/27 08:49:04;;;;;;;;;;;7.40;99.90;;;;;;5137063;28;19918;-71
2023/03/27 08:51:46;;;;;;;;;;;7.40;99.90;;;;;;5135295;28;19916;-71
2023/03/27 08:54:28;;;;;;;;;;;7.30;99.90;;;;;;5120996;28;19928;-71
2023/03/27 08:57:14;;;;;;;;;;;7.20;99.90;;;;;;5132363;28;19924;-69
2023/03/27 08:59:46;;;;;;;;;;;7.20;99.90;;;;;;5136131;28;19910;-68
2023/03/27 09:02:44;;;;;;;;;;;7.20;99.90;;;;;;5132999;28;19918;-70
2023/03/27 09:05:22;;;;;;;;;;;7.10;99.90;;;;;;5144699;28;20380;-70
2023/03/27 09:08:24;;;;;;;;;;;7.10;99.90;;;;;;5120276;28;19917;-72
2023/03/27 09:11:11;;;;;;;;;;;7.10;99.90;;;;;;5152706;28;19929;-73
2023/03/27 09:13:50;;;;;;;;;;;6.90;99.90;;;;;;5152376;28;19917;-71
2023/03/27 09:16:25;;;;;;;;;;;6.70;99.90;;;;;;5166644;28;19922;-71
2023/03/27 09:19:11;;;;;;;;;;;6.50;99.90;;;;;;5155101;28;19922;-69
2023/03/27 09:21:53;;;;;;;;;;;5.90;99.90;;;;;;5124557;28;19924;-71
2023/03/27 09:24:43;;;;;;;;;;;5.60;99.90;;;;;;5151693;28;19910;-71
2023/03/27 09:27:36;;;;;;;;;;;5.50;99.90;;;;;;5136804;28;19929;-70
2023/03/27 09:30:14;;;;;;;;;;;5.70;99.90;;;;;;5118502;28;20107;-71
2023/03/27 09:32:49;;;;;;;;;;;5.80;99.90;;;;;;5137068;28;19918;-70
2023/03/27 09:35:24;;;;;;;;;;;5.90;99.90;;;;;;5167053;28;19939;-70
2023/03/27 09:38:15;;;;;;;;;;;5.80;99.90;;;;;;5117461;28;19924;-68
2023/03/27 09:41:16;;;;;;;;;;;5.80;99.90;;;;;;5123096;28;19929;-69
2023/03/27 09:43:57;;;;;;;;;;;5.50;99.90;;;;;;5137680;28;19924;-69
2023/03/27 09:46:33;;;;;;;;;;;5.50;99.90;;;;;;5142952;28;19922;-67
2023/03/27 09:49:20;;;;;;;;;;;5.30;99.90;;;;;;5151575;28;19918;-72
2023/03/27 09:51:57;;;;;;;;;;;5.20;99.90;;;;;;5119162;28;19924;-70
2023/03/27 09:54:31;;;;;;;;;;;5.00;99.90;;;;;;5134769;28;19922;-69
2023/03/27 09:57:09;;;;;;;;;;;4.80;99.90;;;;;;5118009;28;20396;-70
2023/03/27 10:00:23;;;;;;;;;;;4.80;99.90;;;;;;5147968;28;19918;-69
2023/03/27 10:03:18;;;;;;;;;;;4.90;99.90;;;;;;5121468;28;19929;-68
2023/03/27 10:06:07;;;;;;;;;;;4.90;99.90;;;;;;5132914;28;19921;-73
2023/03/27 10:08:54;;;;;;;;;;;4.80;99.90;;;;;;5143790;28;19918;-71
2023/03/27 10:11:34;;;;;;;;;;;4.80;99.90;;;;;;5135938;28;19924;-71
2023/03/27 10:14:28;;;;;;;;;;;4.80;99.90;;;;;;5147837;28;19973;-68
2023/03/27 10:17:04;;;;;;;;;;;4.80;99.90;;;;;;5118459;28;19913;-72
2023/03/27 10:19:46;;;;;;;;;;;4.70;99.90;;;;;;5104533;28;19917;-68
2023/03/27 10:25:48;;;;;;;2.17;0.90;;;4.40;99.90;;;;;;5265235;27;20569;-70
2023/03/27 10:28:29;;;;;;;2.45;1.33;;;4.50;99.90;;;;;;5168637;27;20053;-71
2023/03/27 10:31:10;;;;;;;2.05;1.35;;;4.50;99.90;;;;;;5189839;28;20033;-71
2023/03/27 10:33:42;;;;;;;1.33;1.25;;;4.40;99.90;;;;;;5164113;28;20298;-68
2023/03/27 10:36:13;;;;;;;1.77;1.50;;;4.20;99.90;;;;;;5193176;28;20029;-70
2023/03/27 10:38:57;;;;;;;2.00;1.73;;;4.10;99.90;;;;;;5212352;28;20032;-69
2023/03/27 10:41:35;;;;;;;1.48;1.38;;;3.90;99.90;;;;;;5212448;28;20344;-69
2023/03/27 10:44:20;;;;;;;1.92;1.70;;;3.80;99.90;;;;;;5194394;28;20333;-68
2023/03/27 10:46:52;;;;;;;2.10;1.92;;;3.50;99.90;;;;;;5223731;28;20031;-69
2023/03/27 10:49:52;;;;;;;4.82;1.67;;;3.50;99.90;;;;;;5191956;28;20033;-71
2023/03/27 10:52:45;;;;;;;1.95;1.67;;;3.40;99.90;;;;;;5195349;28;20029;-69
2023/03/27 10:55:50;;;;;;;1.95;1.35;;;3.10;99.90;;;;;;5227597;28;20285;-70
2023/03/27 10:58:38;;;;;;;1.92;1.75;;;3.00;99.90;;;;;;5211163;28;20044;-72
2023/03/27 11:01:33;;;;;;;1.95;1.77;;;3.00;99.90;;;;;;5207353;28;20035;-72
2023/03/27 11:04:36;;;;;;;2.03;1.80;;;2.90;99.90;;;;;;5203058;28;20041;-72
2023/03/27 11:07:24;;;;;;;1.83;1.73;;;2.70;99.90;;;;;;5181116;28;20325;-69
2023/03/27 11:10:10;;;;;;;2.17;1.98;;;2.70;99.90;;;;;;5208547;28;20361;-70
2023/03/27 11:12:53;;;;;;;6.57;2.88;;;2.60;99.90;;;;;;5219033;28;20033;-71
2023/03/27 11:15:38;;;;;;;2.72;2.42;;;2.60;99.90;;;;;;5183231;28;20330;-71
2023/03/27 11:18:23;;;;;;;3.30;2.33;;;2.50;99.90;;;;;;5207781;28;20232;-72
2023/03/27 11:21:21;;;;;;;2.05;1.83;;;2.40;99.90;;;;;;5207738;28;20021;-73
2023/03/27 11:23:59;;;;;;;2.08;1.73;;;2.40;99.90;;;;;;5177959;28;20037;-74
2023/03/27 11:26:54;;;;;;;2.40;2.20;;;2.30;99.90;;;;;;5171187;28;20090;-73
2023/03/27 11:29:35;;;;;;;3.45;2.40;;;2.40;99.90;;;;;;5186290;28;20024;-73
2023/03/27 11:32:25;;;;;;;3.88;2.50;;;2.50;99.90;;;;;;5183655;28;20026;-75
2023/03/27 11:35:12;;;;;;;2.55;2.25;;;2.60;99.90;;;;;;5183353;28;20032;-74
2023/03/27 11:37:58;;;;;;;2.53;2.15;;;2.60;99.90;;;;;;5170440;28;20151;-73
2023/03/27 11:40:46;;;;;;;7.80;3.03;;;2.60;99.90;;;;;;5155404;28;20034;-72
2023/03/27 11:43:21;;;;;;;3.10;2.70;;;2.60;99.90;;;;;;5146446;28;20374;-73
2023/03/27 11:46:05;;;;;;;5.40;2.28;;;2.70;99.90;;;;;;5184563;28;20042;-72
2023/03/27 11:49:04;;;;;;;3.65;2.63;;;2.80;99.90;;;;;;5172069;28;20203;-71
2023/03/27 11:51:56;;;;;;;3.50;2.67;;;2.80;99.90;;;;;;5169750;28;20025;-73
2023/03/27 11:54:47;;;;;;;4.22;2.80;;;2.80;99.90;;;;;;5146707;28;20037;-71
2023/03/27 11:57:30;;;;;;;2.47;2.10;;;2.80;99.90;;;;;;5168540;28;20022;-72
2023/03/27 12:00:30;;;;;;;2.15;1.92;;;2.90;99.90;;;;;;5155109;28;20078;-71
2023/03/27 12:03:35;;;;;;;2.95;2.47;;;2.90;99.90;;;;;;5167436;28;20033;-71
2023/03/27 12:06:21;;;;;;;6.35;2.72;;;2.90;99.90;;;;;;5150167;28;20401;-71
2023/03/27 12:09:23;;;;;;;8.20;2.65;;;3.00;99.90;;;;;;5177129;28;20021;-70
2023/03/27 12:12:09;;;;;;;2.90;2.28;;;3.20;99.90;;;;;;5174091;28;20026;-71
2023/03/27 12:15:13;;;;;;;3.53;2.28;;;3.20;99.90;;;;;;5175400;28;20040;-70
2023/03/27 12:18:27;;;;;;;4.13;2.35;;;3.10;99.90;;;;;;5159438;28;20045;-72
2023/03/27 12:21:08;;;;;;;4.90;2.72;;;3.30;99.90;;;;;;5173480;28;20493;-70
2023/03/27 12:24:00;;;;;;;3.58;2.83;;;3.50;99.90;;;;;;5174707;28;20613;-70
2023/03/27 12:27:27;;;;;;;5.25;2.60;;;3.70;99.90;;;;;;5125150;28;20025;-67
2023/03/27 12:30:14;;;;;;;4.45;2.47;;;3.90;99.90;;;;;;5108265;28;20030;-71
2023/03/27 12:33:06;;;;;;;3.00;2.35;;;3.90;99.90;;;;;;5169930;28;20029;-70
2023/03/27 12:35:45;;;;;;;2.47;2.17;;;4.00;99.90;;;;;;5174131;28;20032;-66
2023/03/27 12:38:30;;;;;;;1.98;1.77;;;4.00;99.90;;;;;;5174618;28;20025;-71
2023/03/27 12:41:11;;;;;;;3.47;2.20;;;4.10;99.90;;;;;;5175741;28;20482;-70
2023/03/27 12:43:45;;;;;;;3.05;2.10;;;4.30;99.90;;;;;;5175827;28;20457;-69
2023/03/27 12:46:22;;;;;;;3.10;2.03;;;4.50;99.90;;;;;;5173956;28;20048;-68
2023/03/27 12:48:58;;;;;;;3.63;1.60;;;4.70;60.50;;;;;;5173057;28;20026;-70
2023/03/27 12:51:49;;;;;;;7.55;2.20;;;4.90;6.80;;;;;;5175516;28;20026;-69
2023/03/27 12:54:41;;;;;;;2.13;1.60;;;5.20;2.70;;;;;;5175202;28;20029;-68
2023/03/27 12:57:12;;;;;;;3.63;2.20;;;5.30;1.00;;;;;;5188846;28;20026;-69
2023/03/27 12:59:58;;;;;;;4.75;2.03;;;5.50;1.00;;;;;;5172847;28;20028;-70
2023/03/27 13:02:48;;;;;;;1.98;1.60;;;5.60;1.00;;;;;;5170173;28;20510;-70
2023/03/27 13:05:35;;;;;;;3.47;1.90;;;5.70;1.00;;;;;;5184612;28;20041;-66
2023/03/27 13:08:09;;;;;;;1.88;1.65;;;5.60;1.00;;;;;;5158945;28;20036;-66
2023/03/27 13:11:00;;;;;;;3.80;2.00;;;5.90;1.00;;;;;;5191705;28;20033;-69
2023/03/27 13:13:41;;;;;;;1.75;1.52;;;5.90;1.00;;;;;;5175942;28;20032;-69
2023/03/27 13:16:22;;;;;;;1.50;1.40;;;5.90;1.00;;;;;;5170146;28;20090;-69
2023/03/27 13:19:20;;;;;;;3.45;1.70;;;6.50;84.20;;;;;;5155506;28;20033;-69
2023/03/27 13:22:24;;;;;;;1.98;1.88;;;7.40;99.90;;;;;;5156500;28;20040;-71
2023/03/27 13:25:00;;;;;;;1.73;1.42;;;6.70;99.90;;;;;;5171207;28;20049;-71
2023/03/27 13:28:13;;;;;;;2.17;1.92;;;6.70;99.90;;;;;;5165812;28;20033;-72
2023/03/27 13:30:54;;;;;;;2.45;1.52;;;6.50;99.90;;;;;;5166895;28;20089;-71
2023/03/27 13:34:06;;;;;;;2.05;1.70;;;6.40;99.90;;;;;;5168156;28;20430;-72
2023/03/27 13:36:49;;;;;;;7.15;2.00;;;6.40;99.90;;;;;;5167873;28;20569;-74
2023/03/27 13:39:23;;;;;;;3.20;1.40;;;6.50;99.90;;;;;;5169490;28;20403;-70
2023/03/27 13:42:03;;;;;;;3.35;1.48;;;6.60;99.90;;;;;;5173887;28;20273;-74
2023/03/27 13:44:52;;;;;;;2.15;1.45;;;6.40;99.90;;;;;;5173142;28;20038;-73
2023/03/27 13:47:33;;;;;;;1.52;1.42;;;6.30;99.90;;;;;;5154746;28;20042;-74
2023/03/27 13:50:26;;;;;;;1.50;1.40;;;6.50;99.90;;;;;;5173180;28;20051;-72
2023/03/27 13:52:57;;;;;;;3.45;1.67;;;6.60;99.90;;;;;;5151345;28;20026;-68
2023/03/27 13:55:50;;;;;;;3.42;2.30;;;6.60;99.90;;;;;;5170172;28;20056;-70
2023/03/27 13:59:05;;;;;;;1.58;1.33;;;7.50;99.90;;;;;;5155157;28;20136;-72
2023/03/27 14:01:52;;;;;;;2.13;1.38;;;8.90;99.90;;;;;;5132171;28;20041;-71
2023/03/27 14:04:32;;;;;;;4.45;1.30;;;9.00;99.90;;;;;;5123312;28;20408;-68
2023/03/27 14:07:22;;;;;;;1.75;1.60;;;9.20;99.90;;;;;;5137786;28;20042;-68
2023/03/27 14:10:07;;;;;;;2.33;1.60;;;9.30;99.90;;;;;;5145600;28;20029;-73
2023/03/27 14:13:01;;;;;;;1.58;1.48;;;8.40;99.90;;;;;;5150117;28;20251;-72
2023/03/27 14:15:53;;;;;;;2.13;1.60;;;7.60;99.90;;;;;;5147407;28;20222;-70
2023/03/27 14:19:03;;;;;;;1.27;1.08;;;7.00;99.90;;;;;;5139918;28;20149;-71
2023/03/27 14:21:51;;;;;;;2.10;1.23;;;6.90;99.90;;;;;;5135924;28;20249;-72
2023/03/27 14:24:35;;;;;;;3.08;2.03;;;6.70;99.90;;;;;;5127136;28;20046;-67
2023/03/27 14:27:11;;;;;;;10.88;1.73;;;6.80;99.90;;;;;;5132390;28;20315;-73
2023/03/27 14:29:43;;;;;;;1.25;1.10;;;6.80;99.90;;;;;;5148363;28;20034;-72
2023/03/27 14:32:19;;;;;;;0.88;0.88;;;6.60;99.90;;;;;;5155395;28;20034;-70
2023/03/27 14:35:01;;;;;;;1.75;1.20;;;6.60;99.90;;;;;;5164853;28;20041;-73
2023/03/27 14:37:35;;;;;;;1.30;1.20;;;6.50;99.90;;;;;;5164298;28;20366;-74
2023/03/27 14:40:21;;;;;;;1.10;1.00;;;6.50;99.90;;;;;;5151577;28;20511;-71
2023/03/27 14:42:58;;;;;;;3.47;1.50;;;6.40;99.90;;;;;;5168953;28;20045;-68
2023/03/27 14:45:34;;;;;;;1.55;1.45;;;6.50;99.90;;;;;;5159013;28;20046;-69
2023/03/27 14:48:10;;;;;;;1.35;1.25;;;7.20;99.90;;;;;;5154561;28;20044;-72
2023/03/27 14:50:46;;;;;;;1.60;1.50;;;7.80;99.90;;;;;;5156071;28;20034;-71
2023/03/27 14:53:26;;;;;;;1.60;1.35;;;7.90;99.90;;;;;;5188164;28;20030;-70
2023/03/27 14:56:00;;;;;;;1.45;1.35;;;7.60;99.90;;;;;;5171820;28;20034;-67
2023/03/27 14:58:31;;;;;;;1.15;1.08;;;8.20;99.90;;;;;;5169412;28;20060;-70
2023/03/27 15:01:04;;;;;;;1.98;1.67;;;8.90;99.90;;;;;;5170648;28;20022;-68
2023/03/27 15:03:38;;;;;;;1.65;1.50;;;9.20;99.90;;;;;;5166334;28;20038;-73
2023/03/27 15:06:26;;;;;;;4.47;1.88;;;9.00;99.90;;;;;;5166827;28;20474;-73
2023/03/27 15:09:04;;;;;;;1.20;1.10;;;8.60;99.90;;;;;;5182255;28;20536;-69
2023/03/27 15:11:37;;;;;;;2.20;1.30;;;7.30;99.90;;;;;;5163621;28;20030;-69
2023/03/27 15:14:19;;;;;;;1.67;1.30;;;6.80;99.90;;;;;;5164083;28;20364;-71
2023/03/27 15:17:06;;;;;;;2.03;1.25;;;6.60;99.90;;;;;;5165563;28;20019;-70
2023/03/27 15:19:53;;;;;;;1.38;1.08;;;6.20;99.90;;;;;;5164370;28;20038;-70